Time;durP1;ratioP1;P1;durP2;ratioP2;P2;SDS_P1;SDS_P2;PMS_P1;PMS_P2;Temp;Humidity;BMP_temperature;BMP_pressure;BME280_temperature;BME280_humidity;BME280_pressure;Samples;Min_cycle;Max_cycle;Signal;HPM_P1;HPM_P2
2023/12/13 00:00:39;;;;;;;;;;;;;;;;;;5068709;28;20637;-54
2023/12/13 00:03:05;;;;;;;;;;;;;;;;;;5069986;28;20394;-54
2023/12/13 00:05:31;;;;;;;;;;;;;;;;;;5069522;28;19955;-54
2023/12/13 00:07:57;;;;;;;;;;;;;;;;;;5069319;28;19917;-54
2023/12/13 00:10:23;;;;;;;;;;;;;;;;;;5070738;28;19970;-54
2023/12/13 00:12:49;;;;;;;;;;;;;;;;;;5067808;28;19940;-54
2023/12/13 00:15:15;;;;;;;;;;;;;;;;;;5075316;28;19983;-54
2023/12/13 00:17:41;;;;;;;;;;;;;;;;;;5072105;28;20032;-54
2023/12/13 00:20:07;;;;;;;;;;;;;;;;;;5062112;28;19936;-54
2023/12/13 00:22:33;;;;;;;;;;;;;;;;;;5069361;28;20303;-54
2023/12/13 00:24:59;;;;;;;;;;;;;;;;;;5102362;28;20409;-54
2023/12/13 00:27:25;;;;;;;;;;;;;;;;;;5070625;28;20662;-53
2023/12/13 00:29:51;;;;;;;;;;;;;;;;;;5071026;28;19916;-54
2023/12/13 00:32:17;;;;;;;;;;;;;;;;;;5058392;28;20409;-54
2023/12/13 00:34:43;;;;;;;;;;;;;;;;;;5070947;28;20391;-54
2023/12/13 00:37:09;;;;;;;;;;;;;;;;;;5069038;28;19952;-54
2023/12/13 00:39:35;;;;;;;;;;;;;;;;;;5071336;28;20528;-54
2023/12/13 00:42:01;;;;;;;;;;;;;;;;;;5068649;28;20443;-54
2023/12/13 00:44:27;;;;;;;;;;;;;;;;;;5069812;28;19959;-54
2023/12/13 00:46:52;;;;;;;;;;;;;;;;;;5069854;28;19986;-54
2023/12/13 00:49:20;;;;;;;;;;;;;;;;;;5069909;28;19971;-54
2023/12/13 00:51:46;;;;;;;;;;;;;;;;;;5068424;28;20429;-54
2023/12/13 00:54:12;;;;;;;;;;;;;;;;;;5069644;28;20014;-54
2023/12/13 00:56:37;;;;;;;;;;;;;;;;;;5067757;28;20010;-54
2023/12/13 00:59:03;;;;;;;;;;;;;;;;;;5065655;28;19966;-54
2023/12/13 01:01:29;;;;;;;;;;;;;;;;;;5065845;28;19994;-54
2023/12/13 01:03:55;;;;;;;;;;;;;;;;;;5068433;28;19924;-54
2023/12/13 01:06:21;;;;;;;;;;;;;;;;;;5069342;28;19951;-54
2023/12/13 01:08:47;;;;;;;;;;;;;;;;;;5068529;28;19962;-54
2023/12/13 01:11:13;;;;;;;;;;;;;;;;;;5068505;28;19975;-54
2023/12/13 01:13:41;;;;;;;;;;;;;;;;;;5067356;28;19947;-54
2023/12/13 01:16:07;;;;;;;;;;;;;;;;;;5070103;28;19921;-54
2023/12/13 01:18:33;;;;;;;;;;;;;;;;;;5063709;28;19981;-54
2023/12/13 01:20:58;;;;;;;;;;;;;;;;;;5067524;28;19947;-54
2023/12/13 01:23:25;;;;;;;;;;;;;;;;;;5068677;28;19958;-54
2023/12/13 01:25:50;;;;;;;;;;;;;;;;;;5062718;28;20649;-54
2023/12/13 01:28:16;;;;;;;;;;;;;;;;;;5069094;28;19973;-54
2023/12/13 01:30:42;;;;;;;;;;;;;;;;;;5063374;28;19940;-54
2023/12/13 01:33:08;;;;;;;;;;;;;;;;;;5068389;28;19968;-54
2023/12/13 01:35:34;;;;;;;;;;;;;;;;;;5069035;28;19956;-54
2023/12/13 01:38:00;;;;;;;;;;;;;;;;;;5062621;28;19960;-54
2023/12/13 01:40:26;;;;;;;;;;;;;;;;;;5069012;28;19963;-54
2023/12/13 01:42:52;;;;;;;;;;;;;;;;;;5070125;28;19994;-54
2023/12/13 01:45:18;;;;;;;;;;;;;;;;;;5068220;28;20228;-54
2023/12/13 01:47:44;;;;;;;;;;;;;;;;;;5068404;28;20646;-54
2023/12/13 01:50:10;;;;;;;;;;;;;;;;;;5066953;28;19959;-54
2023/12/13 01:52:36;;;;;;;;;;;;;;;;;;5066795;28;19966;-54
2023/12/13 01:55:02;;;;;;;;;;;;;;;;;;5067694;28;19996;-54
2023/12/13 01:57:28;;;;;;;;;;;;;;;;;;5069180;28;20097;-54
2023/12/13 01:59:54;;;;;;;;;;;;;;;;;;5073930;28;19996;-54
2023/12/13 02:02:20;;;;;;;;;;;;;;;;;;5061969;28;19967;-54
2023/12/13 02:04:46;;;;;;;;;;;;;;;;;;5066306;28;20355;-54
2023/12/13 02:07:13;;;;;;;;;;;;;;;;;;5066619;28;20410;-54
2023/12/13 02:09:39;;;;;;;;;;;;;;;;;;5072008;28;19979;-54
2023/12/13 02:12:05;;;;;;;;;;;;;;;;;;5066409;28;19936;-54
2023/12/13 02:14:31;;;;;;;;;;;;;;;;;;5060502;28;19966;-54
2023/12/13 02:16:57;;;;;;;;;;;;;;;;;;5067362;28;20366;-54
2023/12/13 02:19:23;;;;;;;;;;;;;;;;;;5065506;28;20009;-54
2023/12/13 02:21:49;;;;;;;;;;;;;;;;;;5066234;28;19958;-54
2023/12/13 02:24:17;;;;;;;;;;;;;;;;;;5068010;28;19963;-54
2023/12/13 02:26:43;;;;;;;;;;;;;;;;;;5065978;28;20405;-54
2023/12/13 02:29:09;;;;;;;;;;;;;;;;;;5071477;28;19968;-54
2023/12/13 02:31:35;;;;;;;;;;;;;;;;;;5075463;28;19948;-54
2023/12/13 02:34:01;;;;;;;;;;;;;;;;;;5071367;28;19948;-54
2023/12/13 02:36:27;;;;;;;;;;;;;;;;;;5072226;28;19959;-54
2023/12/13 02:38:53;;;;;;;;;;;;;;;;;;5071717;28;19970;-54
2023/12/13 02:41:19;;;;;;;;;;;;;;;;;;5071697;28;19956;-54
2023/12/13 02:43:45;;;;;;;;;;;;;;;;;;5082347;28;20631;-54
2023/12/13 02:46:11;;;;;;;;;;;;;;;;;;5070842;28;20363;-54
2023/12/13 02:48:37;;;;;;;;;;;;;;;;;;5070375;28;19954;-54
2023/12/13 02:51:03;;;;;;;;;;;;;;;;;;5070173;28;19952;-54
2023/12/13 02:53:29;;;;;;;;;;;;;;;;;;5066624;28;19958;-54
2023/12/13 02:55:55;;;;;;;;;;;;;;;;;;5073195;28;19979;-54
2023/12/13 02:58:21;;;;;;;;;;;;;;;;;;5066048;28;20014;-54
2023/12/13 03:00:48;;;;;;;;;;;;;;;;;;5071612;28;19956;-54
2023/12/13 03:03:14;;;;;;;;;;;;;;;;;;5069164;28;20338;-54
2023/12/13 03:05:40;;;;;;;;;;;;;;;;;;5075510;28;19938;-55
2023/12/13 03:08:06;;;;;;;;;;;;;;;;;;5070485;28;20006;-55
2023/12/13 03:10:31;;;;;;;;;;;;;;;;;;5070876;28;19960;-55
2023/12/13 03:12:57;;;;;;;;;;;;;;;;;;5068290;28;19981;-55
2023/12/13 03:15:23;;;;;;;;;;;;;;;;;;5070324;28;19975;-55
2023/12/13 03:17:49;;;;;;;;;;;;;;;;;;5069620;28;20312;-55
2023/12/13 03:20:15;;;;;;;;;;;;;;;;;;5070561;28;19963;-55
2023/12/13 03:22:41;;;;;;;;;;;;;;;;;;5070509;28;19944;-55
2023/12/13 03:25:07;;;;;;;;;;;;;;;;;;5070944;28;19960;-55
2023/12/13 03:27:33;;;;;;;;;;;;;;;;;;5070537;28;19916;-55
2023/12/13 03:29:59;;;;;;;;;;;;;;;;;;5069526;28;20006;-55
2023/12/13 03:32:25;;;;;;;;;;;;;;;;;;5066139;28;19954;-54
2023/12/13 03:34:51;;;;;;;;;;;;;;;;;;5070275;28;19943;-55
2023/12/13 03:37:17;;;;;;;;;;;;;;;;;;5070580;28;19985;-55
2023/12/13 03:39:43;;;;;;;;;;;;;;;;;;5070372;28;20007;-55
2023/12/13 03:42:08;;;;;;;;;;;;;;;;;;5069099;28;19954;-55
2023/12/13 03:44:34;;;;;;;;;;;;;;;;;;5070780;28;19951;-55
2023/12/13 03:47:00;;;;;;;;;;;;;;;;;;5071136;28;20265;-54
2023/12/13 03:49:26;;;;;;;;;;;;;;;;;;5067467;28;20385;-55
2023/12/13 03:51:52;;;;;;;;;;;;;;;;;;5067114;28;20578;-55
2023/12/13 03:54:18;;;;;;;;;;;;;;;;;;5067920;28;19970;-55
2023/12/13 03:56:44;;;;;;;;;;;;;;;;;;5070137;28;19951;-55
2023/12/13 03:59:10;;;;;;;;;;;;;;;;;;5070371;28;20037;-55
2023/12/13 04:01:36;;;;;;;;;;;;;;;;;;5070156;28;19923;-55
2023/12/13 04:04:02;;;;;;;;;;;;;;;;;;5068591;28;19960;-55
2023/12/13 04:06:28;;;;;;;;;;;;;;;;;;5068650;28;20319;-55
2023/12/13 04:08:55;;;;;;;;;;;;;;;;;;5070949;28;19939;-55
2023/12/13 04:11:21;;;;;;;;;;;;;;;;;;5069616;28;20303;-54
2023/12/13 04:13:47;;;;;;;;;;;;;;;;;;5068987;28;19972;-55
2023/12/13 04:16:13;;;;;;;;;;;;;;;;;;5068777;28;20406;-55
2023/12/13 04:18:39;;;;;;;;;;;;;;;;;;5069427;28;19952;-54
2023/12/13 04:21:05;;;;;;;;;;;;;;;;;;5069671;28;19924;-54
2023/12/13 04:23:31;;;;;;;;;;;;;;;;;;5070699;28;19924;-54
2023/12/13 04:25:57;;;;;;;;;;;;;;;;;;5069752;28;19987;-54
2023/12/13 04:28:23;;;;;;;;;;;;;;;;;;5069098;28;19978;-54
2023/12/13 04:30:49;;;;;;;;;;;;;;;;;;5070080;28;20027;-54
2023/12/13 04:33:18;;;;;;;;;;;;;;;;;;5069160;28;19984;-54
2023/12/13 04:35:44;;;;;;;;;;;;;;;;;;5069260;28;19986;-54
2023/12/13 04:38:10;;;;;;;;;;;;;;;;;;5071569;28;19916;-54
2023/12/13 04:40:36;;;;;;;;;;;;;;;;;;5067839;28;20015;-54
2023/12/13 04:43:02;;;;;;;;;;;;;;;;;;5067514;28;19963;-54
2023/12/13 04:45:28;;;;;;;;;;;;;;;;;;5069496;28;19967;-54
2023/12/13 04:47:54;;;;;;;;;;;;;;;;;;5068201;28;20007;-54
2023/12/13 04:50:21;;;;;;;;;;;;;;;;;;5063310;28;19983;-54
2023/12/13 04:52:49;;;;;;;;;;;;;;;;;;5069387;28;20014;-54
2023/12/13 04:55:14;;;;;;;;;;;;;;;;;;5060163;28;20407;-54
2023/12/13 04:57:40;;;;;;;;;;;;;;;;;;5062816;28;19995;-54
2023/12/13 05:00:07;;;;;;;;;;;;;;;;;;5069897;28;20083;-55
2023/12/13 05:02:33;;;;;;;;;;;;;;;;;;5063915;28;19913;-54
2023/12/13 05:04:59;;;;;;;;;;;;;;;;;;5066339;28;19971;-54
2023/12/13 05:07:27;;;;;;;;;;;;;;;;;;5066166;28;19956;-54
2023/12/13 05:09:54;;;;;;;;;;;;;;;;;;5070212;28;19935;-54
2023/12/13 05:12:20;;;;;;;;;;;;;;;;;;5063952;28;19962;-54
2023/12/13 05:14:46;;;;;;;;;;;;;;;;;;5068148;28;20372;-54
2023/12/13 05:17:12;;;;;;;;;;;;;;;;;;5066389;28;19955;-54
2023/12/13 05:19:38;;;;;;;;;;;;;;;;;;5068785;28;19978;-54
2023/12/13 05:22:04;;;;;;;;;;;;;;;;;;5067683;28;19950;-54
2023/12/13 05:24:30;;;;;;;;;;;;;;;;;;5068865;28;19951;-54
2023/12/13 05:26:56;;;;;;;;;;;;;;;;;;5067454;28;19959;-54
2023/12/13 05:29:21;;;;;;;;;;;;;;;;;;5069230;28;19948;-52
2023/12/13 05:31:47;;;;;;;;;;;;;;;;;;5065713;28;20374;-52
2023/12/13 05:34:13;;;;;;;;;;;;;;;;;;5067556;28;20004;-52
2023/12/13 05:36:39;;;;;;;;;;;;;;;;;;5066763;28;20004;-54
2023/12/13 05:39:07;;;;;;;;;;;;;;;;;;5068094;28;19967;-54
2023/12/13 05:41:33;;;;;;;;;;;;;;;;;;5069047;28;20334;-54
2023/12/13 05:44:01;;;;;;;;;;;;;;;;;;5068022;28;20012;-54
2023/12/13 05:46:27;;;;;;;;;;;;;;;;;;5064155;28;19921;-54
2023/12/13 05:48:53;;;;;;;;;;;;;;;;;;5067611;28;19912;-54
2023/12/13 05:51:18;;;;;;;;;;;;;;;;;;5069105;28;19912;-54
2023/12/13 05:53:44;;;;;;;;;;;;;;;;;;5070114;28;20003;-54
2023/12/13 05:56:10;;;;;;;;;;;;;;;;;;5062316;28;20348;-55
2023/12/13 05:58:36;;;;;;;;;;;;;;;;;;5065130;28;19959;-54
2023/12/13 06:01:03;;;;;;;;;;;;;;;;;;5068272;28;19971;-54
2023/12/13 06:03:29;;;;;;;;;;;;;;;;;;5070013;28;20304;-54
2023/12/13 06:05:55;;;;;;;;;;;;;;;;;;5068455;28;19924;-54
2023/12/13 06:08:21;;;;;;;;;;;;;;;;;;5068986;28;20024;-54
2023/12/13 06:10:48;;;;;;;;;;;;;;;;;;5080686;28;19955;-54
2023/12/13 06:13:17;;;;;;;;;;;;;;;;;;5070435;28;19916;-54
2023/12/13 06:15:43;;;;;;;;;;;;;;;;;;5064011;28;20382;-54
2023/12/13 06:18:09;;;;;;;;;;;;;;;;;;5067213;28;19919;-54
2023/12/13 06:20:35;;;;;;;;;;;;;;;;;;5073987;28;19966;-54
2023/12/13 06:23:01;;;;;;;;;;;;;;;;;;5070946;28;19960;-55
2023/12/13 06:25:27;;;;;;;;;;;;;;;;;;5069143;28;19959;-54
2023/12/13 06:27:53;;;;;;;;;;;;;;;;;;5067876;28;19948;-54
2023/12/13 06:30:19;;;;;;;;;;;;;;;;;;5069867;28;19918;-54
2023/12/13 06:32:46;;;;;;;;;;;;;;;;;;5063702;28;19948;-54
2023/12/13 06:35:13;;;;;;;;;;;;;;;;;;5058811;28;19948;-54
2023/12/13 06:37:39;;;;;;;;;;;;;;;;;;5066317;28;19943;-54
2023/12/13 06:40:05;;;;;;;;;;;;;;;;;;5065315;28;20379;-54
2023/12/13 06:42:31;;;;;;;;;;;;;;;;;;5066995;28;19975;-54
2023/12/13 06:44:57;;;;;;;;;;;;;;;;;;5069189;28;20081;-55
2023/12/13 06:47:23;;;;;;;;;;;;;;;;;;5068535;28;19947;-55
2023/12/13 06:49:49;;;;;;;;;;;;;;;;;;5067620;28;20000;-55
2023/12/13 06:52:15;;;;;;;;;;;;;;;;;;5080993;28;20012;-55
2023/12/13 06:54:41;;;;;;;;;;;;;;;;;;5069507;28;20371;-55
2023/12/13 06:57:07;;;;;;;;;;;;;;;;;;5084697;28;20376;-55
2023/12/13 06:59:33;;;;;;;;;;;;;;;;;;5080623;28;19956;-55
2023/12/13 07:02:00;;;;;;;;;;;;;;;;;;5064300;28;20404;-55
2023/12/13 07:04:26;;;;;;;;;;;;;;;;;;5068361;28;20406;-55
2023/12/13 07:06:52;;;;;;;;;;;;;;;;;;5063857;28;19960;-55
2023/12/13 07:09:18;;;;;;;;;;;;;;;;;;5067399;28;20354;-55
2023/12/13 07:11:44;;;;;;;;;;;;;;;;;;5065416;28;19917;-55
2023/12/13 07:14:10;;;;;;;;;;;;;;;;;;5068532;28;19968;-55
2023/12/13 07:16:36;;;;;;;;;;;;;;;;;;5068214;28;19919;-55
2023/12/13 07:19:02;;;;;;;;;;;;;;;;;;5070859;28;19952;-55
2023/12/13 07:21:29;;;;;;;;;;;;;;;;;;5070314;28;20220;-55
2023/12/13 07:23:54;;;;;;;;;;;;;;;;;;5071885;28;19913;-55
2023/12/13 07:26:20;;;;;;;;;;;;;;;;;;5071791;28;19920;-55
2023/12/13 07:28:46;;;;;;;;;;;;;;;;;;5071001;28;20306;-55
2023/12/13 07:31:12;;;;;;;;;;;;;;;;;;5071806;28;19959;-55
2023/12/13 07:33:40;;;;;;;;;;;;;;;;;;5070352;28;19954;-55
2023/12/13 07:36:06;;;;;;;;;;;;;;;;;;5073511;28;20272;-55
2023/12/13 07:38:32;;;;;;;;;;;;;;;;;;5069617;28;20139;-55
2023/12/13 07:40:58;;;;;;;;;;;;;;;;;;5069141;28;19988;-55
2023/12/13 07:43:26;;;;;;;;;;;;;;;;;;5070664;28;19916;-55
2023/12/13 07:45:52;;;;;;;;;;;;;;;;;;5071149;28;20041;-55
2023/12/13 07:48:18;;;;;;;;;;;;;;;;;;5071032;28;20015;-55
2023/12/13 07:50:44;;;;;;;;;;;;;;;;;;5069945;28;19912;-54
2023/12/13 07:53:10;;;;;;;;;;;;;;;;;;5071095;28;19960;-55
2023/12/13 07:55:36;;;;;;;;;;;;;;;;;;5068102;28;19968;-54
2023/12/13 07:58:02;;;;;;;;;;;;;;;;;;5063500;28;19985;-53
2023/12/13 08:00:29;;;;;;;;;;;;;;;;;;5071237;28;19917;-54
2023/12/13 08:02:55;;;;;;;;;;;;;;;;;;5060322;28;20220;-54
2023/12/13 08:05:21;;;;;;;;;;;;;;;;;;5062223;28;19952;-55
2023/12/13 08:07:47;;;;;;;;;;;;;;;;;;5071045;28;19986;-54
2023/12/13 08:10:13;;;;;;;;;;;;;;;;;;5070987;28;20391;-55
2023/12/13 08:12:39;;;;;;;;;;;;;;;;;;5083488;28;19993;-54
2023/12/13 08:15:05;;;;;;;;;;;;;;;;;;5070423;28;19967;-55
2023/12/13 08:17:31;;;;;;;;;;;;;;;;;;5070625;28;19958;-56
2023/12/13 08:19:57;;;;;;;;;;;;;;;;;;5070949;28;20382;-54
2023/12/13 08:22:23;;;;;;;;;;;;;;;;;;5070199;28;19967;-54
2023/12/13 08:24:49;;;;;;;;;;;;;;;;;;5070075;28;20279;-55
2023/12/13 08:27:16;;;;;;;;;;;;;;;;;;5069825;28;19948;-54
2023/12/13 08:29:42;;;;;;;;;;;;;;;;;;5068232;28;19920;-54
2023/12/13 08:32:08;;;;;;;;;;;;;;;;;;5068981;28;19931;-54
2023/12/13 08:34:34;;;;;;;;;;;;;;;;;;5070909;28;19919;-54
2023/12/13 08:37:00;;;;;;;;;;;;;;;;;;5080137;28;19947;-54
2023/12/13 08:39:26;;;;;;;;;;;;;;;;;;5077693;28;20311;-54
2023/12/13 08:41:52;;;;;;;;;;;;;;;;;;5069698;28;19917;-55
2023/12/13 08:44:18;;;;;;;;;;;;;;;;;;5070826;28;19967;-55
2023/12/13 08:46:45;;;;;;;;;;;;;;;;;;5062122;28;20418;-56
2023/12/13 08:49:11;;;;;;;;;;;;;;;;;;5067898;28;19912;-56
2023/12/13 08:51:37;;;;;;;;;;;;;;;;;;5069696;28;20007;-56
2023/12/13 08:54:04;;;;;;;;;;;;;;;;;;5070419;28;20096;-56
2023/12/13 08:56:30;;;;;;;;;;;;;;;;;;5069025;28;20326;-56
2023/12/13 08:58:56;;;;;;;;;;;;;;;;;;5068682;28;19976;-56
2023/12/13 09:01:22;;;;;;;;;;;;;;;;;;5069251;28;19948;-56
2023/12/13 09:03:48;;;;;;;;;;;;;;;;;;5067635;28;20077;-56
2023/12/13 09:06:13;;;;;;;;;;;;;;;;;;5071760;28;20660;-56
2023/12/13 09:08:39;;;;;;;;;;;;;;;;;;5087554;28;20340;-55
2023/12/13 09:11:05;;;;;;;;;;;;;;;;;;5068958;28;20251;-55
2023/12/13 09:13:31;;;;;;;;;;;;;;;;;;5069000;28;20393;-52
2023/12/13 09:15:57;;;;;;;;;;;;;;;;;;5064747;28;20590;-55
2023/12/13 09:18:23;;;;;;;;;;;;;;;;;;5073425;28;19963;-57
2023/12/13 09:20:49;;;;;;;;;;;;;;;;;;5061645;28;20664;-54
2023/12/13 09:23:15;;;;;;;;;;;;;;;;;;5063939;28;19920;-54
2023/12/13 09:25:41;;;;;;;;;;;;;;;;;;5068476;28;19967;-54
2023/12/13 09:28:07;;;;;;;;;;;;;;;;;;5069496;28;20059;-54
2023/12/13 09:30:33;;;;;;;;;;;;;;;;;;5068906;28;19956;-54
2023/12/13 09:32:59;;;;;;;;;;;;;;;;;;5068315;28;20703;-51
2023/12/13 09:35:25;;;;;;;;;;;;;;;;;;5069549;28;20001;-54
2023/12/13 09:37:51;;;;;;;;;;;;;;;;;;5066846;28;19955;-54
2023/12/13 09:40:18;;;;;;;;;;;;;;;;;;5063885;28;19923;-53
2023/12/13 09:42:47;;;;;;;;;;;;;;;;;;5068286;28;19916;-54
2023/12/13 09:45:13;;;;;;;;;;;;;;;;;;5068366;28;19973;-54
2023/12/13 09:47:39;;;;;;;;;;;;;;;;;;5067606;28;19959;-53
2023/12/13 09:50:05;;;;;;;;;;;;;;;;;;5055027;28;19955;-54
2023/12/13 09:52:31;;;;;;;;;;;;;;;;;;5065451;28;19955;-54
2023/12/13 09:54:57;;;;;;;;;;;;;;;;;;5069248;28;20299;-54
2023/12/13 09:57:23;;;;;;;;;;;;;;;;;;5067414;28;20620;-54
2023/12/13 09:59:49;;;;;;;;;;;;;;;;;;5069092;28;19955;-54
2023/12/13 10:02:15;;;;;;;;;;;;;;;;;;5067705;28;20324;-54
2023/12/13 10:04:41;;;;;;;;;;;;;;;;;;5068628;28;19962;-55
2023/12/13 10:07:07;;;;;;;;;;;;;;;;;;5068200;28;19974;-54
2023/12/13 10:09:34;;;;;;;;;;;;;;;;;;5063893;28;19916;-55
2023/12/13 10:12:00;;;;;;;;;;;;;;;;;;5066914;28;20420;-52
2023/12/13 10:14:26;;;;;;;;;;;;;;;;;;5068981;28;20391;-55
2023/12/13 10:16:52;;;;;;;;;;;;;;;;;;5067915;28;19960;-55
2023/12/13 10:19:18;;;;;;;;;;;;;;;;;;5069598;28;19916;-54
2023/12/13 10:21:46;;;;;;;;;;;;;;;;;;5068554;28;20397;-54
2023/12/13 10:24:11;;;;;;;;;;;;;;;;;;5068309;28;19923;-54
2023/12/13 10:26:37;;;;;;;;;;;;;;;;;;5068320;28;20030;-54
2023/12/13 10:29:04;;;;;;;;;;;;;;;;;;5069539;28;19951;-52
2023/12/13 10:31:30;;;;;;;;;;;;;;;;;;5068635;28;19939;-56
2023/12/13 10:33:56;;;;;;;;;;;;;;;;;;5068425;28;20364;-53
2023/12/13 10:36:22;;;;;;;;;;;;;;;;;;5069027;28;20398;-55
2023/12/13 10:38:48;;;;;;;;;;;;;;;;;;5069023;28;19940;-56
2023/12/13 10:41:17;;;;;;;;;;;;;;;;;;5068771;28;20379;-55
2023/12/13 10:43:43;;;;;;;;;;;;;;;;;;5066968;28;19920;-55
2023/12/13 10:46:09;;;;;;;;;;;;;;;;;;5069095;28;19916;-56
2023/12/13 10:48:35;;;;;;;;;;;;;;;;;;5069679;28;19920;-55
2023/12/13 10:51:02;;;;;;;;;;;;;;;;;;5067605;28;19982;-56
2023/12/13 10:53:28;;;;;;;;;;;;;;;;;;5072144;28;19943;-55
2023/12/13 10:55:54;;;;;;;;;;;;;;;;;;5072755;28;19912;-55
2023/12/13 10:58:20;;;;;;;;;;;;;;;;;;5071938;28;20371;-55
2023/12/13 11:00:46;;;;;;;;;;;;;;;;;;5072401;28;19935;-55
2023/12/13 11:03:12;;;;;;;;;;;;;;;;;;5071793;28;20287;-55
2023/12/13 11:05:38;;;;;;;;;;;;;;;;;;5072617;28;19961;-55
2023/12/13 11:08:03;;;;;;;;;;;;;;;;;;5066905;28;20209;-55
2023/12/13 11:10:29;;;;;;;;;;;;;;;;;;5066461;28;19940;-56
2023/12/13 11:12:55;;;;;;;;;;;;;;;;;;5070618;28;19967;-55
2023/12/13 11:15:21;;;;;;;;;;;;;;;;;;5071016;28;19975;-56
2023/12/13 11:17:48;;;;;;;;;;;;;;;;;;5070151;28;19963;-56
2023/12/13 11:20:14;;;;;;;;;;;;;;;;;;5067239;28;19939;-55
2023/12/13 11:22:40;;;;;;;;;;;;;;;;;;5071220;28;19996;-55
2023/12/13 11:25:06;;;;;;;;;;;;;;;;;;5072344;28;19955;-56
2023/12/13 11:27:32;;;;;;;;;;;;;;;;;;5071133;28;20016;-56
2023/12/13 11:29:58;;;;;;;;;;;;;;;;;;5052993;28;20376;-55
2023/12/13 11:32:24;;;;;;;;;;;;;;;;;;5062920;28;20015;-55
2023/12/13 11:34:50;;;;;;;;;;;;;;;;;;5071625;28;20003;-56
2023/12/13 11:37:16;;;;;;;;;;;;;;;;;;5070884;28;20014;-55
2023/12/13 11:39:42;;;;;;;;;;;;;;;;;;5063652;28;19970;-55
2023/12/13 11:42:08;;;;;;;;;;;;;;;;;;5071665;28;20417;-56
2023/12/13 11:44:34;;;;;;;;;;;;;;;;;;5067430;28;19951;-56
2023/12/13 11:47:00;;;;;;;;;;;;;;;;;;5071157;28;19979;-56
2023/12/13 11:49:26;;;;;;;;;;;;;;;;;;5070850;28;19966;-56
2023/12/13 11:51:52;;;;;;;;;;;;;;;;;;5069549;28;20402;-56
2023/12/13 11:54:18;;;;;;;;;;;;;;;;;;5071709;28;19959;-56
2023/12/13 11:56:44;;;;;;;;;;;;;;;;;;5069455;28;19960;-62
2023/12/13 11:59:10;;;;;;;;;;;;;;;;;;5061207;28;19956;-61
2023/12/13 12:01:36;;;;;;;;;;;;;;;;;;5068610;28;20477;-61
2023/12/13 12:04:02;;;;;;;;;;;;;;;;;;5070414;28;20019;-60
2023/12/13 12:06:28;;;;;;;;;;;;;;;;;;5071046;28;19928;-60
2023/12/13 12:08:54;;;;;;;;;;;;;;;;;;5076261;28;20273;-60
2023/12/13 12:11:20;;;;;;;;;;;;;;;;;;5071076;28;19951;-60
2023/12/13 12:13:46;;;;;;;;;;;;;;;;;;5077373;28;19920;-60
2023/12/13 12:16:12;;;;;;;;;;;;;;;;;;5071709;28;19920;-60
2023/12/13 12:18:38;;;;;;;;;;;;;;;;;;5071586;28;19948;-60
2023/12/13 12:21:04;;;;;;;;;;;;;;;;;;5068967;28;19916;-60
2023/12/13 12:23:30;;;;;;;;;;;;;;;;;;5070727;28;19959;-58
2023/12/13 12:25:56;;;;;;;;;;;;;;;;;;5071472;28;20054;-58
2023/12/13 12:28:23;;;;;;;;;;;;;;;;;;5066022;28;19971;-58
2023/12/13 12:30:49;;;;;;;;;;;;;;;;;;5066654;28;19913;-61
2023/12/13 12:33:15;;;;;;;;;;;;;;;;;;5070442;28;20331;-61
2023/12/13 12:35:41;;;;;;;;;;;;;;;;;;5071076;28;19943;-60
2023/12/13 12:38:08;;;;;;;;;;;;;;;;;;5084335;28;19961;-61
2023/12/13 12:40:34;;;;;;;;;;;;;;;;;;5070412;28;19913;-61
2023/12/13 12:43:00;;;;;;;;;;;;;;;;;;5070770;28;19948;-61
2023/12/13 12:45:27;;;;;;;;;;;;;;;;;;5061594;28;20007;-61
2023/12/13 12:47:53;;;;;;;;;;;;;;;;;;5060713;28;19951;-61
2023/12/13 12:50:19;;;;;;;;;;;;;;;;;;5068972;28;19963;-61
2023/12/13 12:52:45;;;;;;;;;;;;;;;;;;5069856;28;20368;-61
2023/12/13 12:55:10;;;;;;;;;;;;;;;;;;5068343;28;20395;-61
2023/12/13 12:57:37;;;;;;;;;;;;;;;;;;5068033;28;20376;-61
2023/12/13 13:00:03;;;;;;;;;;;;;;;;;;5069019;28;19923;-61
2023/12/13 13:02:30;;;;;;;;;;;;;;;;;;5069958;28;19922;-60
2023/12/13 13:04:56;;;;;;;;;;;;;;;;;;5069885;28;19917;-61
2023/12/13 13:07:22;;;;;;;;;;;;;;;;;;5060251;28;20338;-61
2023/12/13 13:09:48;;;;;;;;;;;;;;;;;;5069888;28;20403;-61
2023/12/13 13:12:14;;;;;;;;;;;;;;;;;;5067996;28;19970;-58
2023/12/13 13:14:39;;;;;;;;;;;;;;;;;;5065385;28;20349;-58
2023/12/13 13:17:06;;;;;;;;;;;;;;;;;;5065934;28;19944;-58
2023/12/13 13:19:32;;;;;;;;;;;;;;;;;;5069420;28;20367;-58
2023/12/13 13:21:58;;;;;;;;;;;;;;;;;;5068246;28;19975;-58
2023/12/13 13:24:23;;;;;;;;;;;;;;;;;;5068884;28;19968;-59
2023/12/13 13:26:49;;;;;;;;;;;;;;;;;;5068650;28;19940;-58
2023/12/13 13:29:15;;;;;;;;;;;;;;;;;;5068701;28;19951;-61
2023/12/13 13:31:42;;;;;;;;;;;;;;;;;;5067826;28;19947;-60
2023/12/13 13:34:08;;;;;;;;;;;;;;;;;;5068454;28;19923;-61
2023/12/13 13:36:34;;;;;;;;;;;;;;;;;;5066645;28;19999;-60
2023/12/13 13:38:59;;;;;;;;;;;;;;;;;;5069661;28;19909;-60
2023/12/13 13:41:26;;;;;;;;;;;;;;;;;;5068544;28;20382;-61
2023/12/13 13:43:52;;;;;;;;;;;;;;;;;;5066843;28;19917;-61
2023/12/13 13:46:19;;;;;;;;;;;;;;;;;;5058989;28;19972;-61
2023/12/13 13:48:45;;;;;;;;;;;;;;;;;;5067623;28;20328;-58
2023/12/13 13:51:11;;;;;;;;;;;;;;;;;;5066912;28;20421;-58
2023/12/13 13:53:37;;;;;;;;;;;;;;;;;;5068072;28;20066;-58
2023/12/13 13:56:03;;;;;;;;;;;;;;;;;;5065697;28;19999;-59
2023/12/13 13:58:29;;;;;;;;;;;;;;;;;;5068166;28;20020;-59
2023/12/13 14:00:55;;;;;;;;;;;;;;;;;;5065629;28;20191;-58
2023/12/13 14:03:21;;;;;;;;;;;;;;;;;;5067684;28;19947;-59
2023/12/13 14:05:47;;;;;;;;;;;;;;;;;;5068161;28;19951;-58
2023/12/13 14:08:14;;;;;;;;;;;;;;;;;;5068656;28;19947;-59
2023/12/13 14:10:40;;;;;;;;;;;;;;;;;;5068623;28;19920;-58
2023/12/13 14:13:06;;;;;;;;;;;;;;;;;;5068583;28;20015;-59
2023/12/13 14:15:32;;;;;;;;;;;;;;;;;;5058913;28;19938;-60
2023/12/13 14:17:58;;;;;;;;;;;;;;;;;;5065607;28;19925;-60
2023/12/13 14:20:24;;;;;;;;;;;;;;;;;;5065645;28;20053;-60
2023/12/13 14:22:50;;;;;;;;;;;;;;;;;;5066934;28;19970;-61
2023/12/13 14:25:16;;;;;;;;;;;;;;;;;;5069628;28;19960;-57
2023/12/13 14:27:42;;;;;;;;;;;;;;;;;;5074696;28;19942;-58
2023/12/13 14:30:09;;;;;;;;;;;;;;;;;;5072577;28;19959;-58
2023/12/13 14:32:35;;;;;;;;;;;;;;;;;;5070533;28;19935;-58
2023/12/13 14:35:01;;;;;;;;;;;;;;;;;;5072437;28;20466;-58
2023/12/13 14:37:27;;;;;;;;;;;;;;;;;;5072727;28;19962;-58
2023/12/13 14:39:53;;;;;;;;;;;;;;;;;;5070703;28;19916;-59
2023/12/13 14:42:19;;;;;;;;;;;;;;;;;;5072232;28;19952;-58
2023/12/13 14:44:45;;;;;;;;;;;;;;;;;;5074315;28;20373;-58
2023/12/13 14:47:11;;;;;;;;;;;;;;;;;;5071443;28;19941;-59
2023/12/13 14:49:37;;;;;;;;;;;;;;;;;;5071769;28;19944;-58
2023/12/13 14:52:03;;;;;;;;;;;;;;;;;;5070405;28;20034;-58
2023/12/13 14:54:29;;;;;;;;;;;;;;;;;;5067917;28;19962;-59
2023/12/13 14:56:55;;;;;;;;;;;;;;;;;;5066463;28;20505;-61
2023/12/13 14:59:21;;;;;;;;;;;;;;;;;;5070751;28;19959;-59
2023/12/13 15:01:48;;;;;;;;;;;;;;;;;;5073645;28;19943;-58
2023/12/13 15:04:15;;;;;;;;;;;;;;;;;;5071440;28;20019;-59
2023/12/13 15:06:41;;;;;;;;;;;;;;;;;;5071390;28;20232;-58
2023/12/13 15:09:07;;;;;;;;;;;;;;;;;;5066800;28;19912;-60
2023/12/13 15:11:33;;;;;;;;;;;;;;;;;;5078981;28;19913;-56
2023/12/13 15:13:59;;;;;;;;;;;;;;;;;;5071398;28;20461;-56
2023/12/13 15:16:25;;;;;;;;;;;;;;;;;;5071705;28;20641;-55
2023/12/13 15:18:51;;;;;;;;;;;;;;;;;;5071365;28;20420;-55
2023/12/13 15:21:17;;;;;;;;;;;;;;;;;;5081212;28;20359;-57
2023/12/13 15:23:43;;;;;;;;;;;;;;;;;;5086394;28;20011;-57
2023/12/13 15:26:09;;;;;;;;;;;;;;;;;;5070335;28;19916;-57
2023/12/13 15:28:36;;;;;;;;;;;;;;;;;;5069098;28;19967;-57
2023/12/13 15:31:01;;;;;;;;;;;;;;;;;;5071138;28;19979;-57
2023/12/13 15:33:29;;;;;;;;;;;;;;;;;;5070130;28;19917;-58
2023/12/13 15:35:55;;;;;;;;;;;;;;;;;;5065128;28;20408;-58
2023/12/13 15:38:21;;;;;;;;;;;;;;;;;;5068676;28;20131;-57
2023/12/13 15:40:47;;;;;;;;;;;;;;;;;;5077304;28;19966;-57
2023/12/13 15:43:13;;;;;;;;;;;;;;;;;;5070788;28;19960;-57
2023/12/13 15:45:41;;;;;;;;;;;;;;;;;;5070671;28;19955;-57
2023/12/13 15:48:07;;;;;;;;;;;;;;;;;;5068211;28;20271;-57
2023/12/13 15:50:33;;;;;;;;;;;;;;;;;;5057089;28;19983;-57
2023/12/13 15:53:00;;;;;;;;;;;;;;;;;;5064454;28;19959;-57
2023/12/13 15:55:26;;;;;;;;;;;;;;;;;;5077478;28;20356;-57
2023/12/13 15:57:52;;;;;;;;;;;;;;;;;;5070390;28;19919;-57
2023/12/13 16:00:19;;;;;;;;;;;;;;;;;;5070498;28;20367;-57
2023/12/13 16:02:45;;;;;;;;;;;;;;;;;;5065529;28;19955;-57
2023/12/13 16:05:13;;;;;;;;;;;;;;;;;;5062610;28;20302;-57
2023/12/13 16:07:41;;;;;;;;;;;;;;;;;;5074563;28;19916;-57
2023/12/13 16:10:07;;;;;;;;;;;;;;;;;;5085869;28;20365;-57
2023/12/13 16:12:33;;;;;;;;;;;;;;;;;;5068899;28;19935;-57
2023/12/13 16:15:01;;;;;;;;;;;;;;;;;;5069373;28;19976;-57
2023/12/13 16:17:28;;;;;;;;;;;;;;;;;;5069021;28;19923;-57
2023/12/13 16:19:54;;;;;;;;;;;;;;;;;;5067375;28;20012;-57
2023/12/13 16:22:20;;;;;;;;;;;;;;;;;;5066892;28;19950;-57
2023/12/13 16:24:46;;;;;;;;;;;;;;;;;;5064747;28;19964;-57
2023/12/13 16:27:13;;;;;;;;;;;;;;;;;;5065740;28;20250;-57
2023/12/13 16:29:39;;;;;;;;;;;;;;;;;;5071014;28;19923;-57
2023/12/13 16:32:05;;;;;;;;;;;;;;;;;;5069331;28;20399;-57
2023/12/13 16:34:31;;;;;;;;;;;;;;;;;;5069055;28;19950;-57
2023/12/13 16:36:57;;;;;;;;;;;;;;;;;;5069146;28;20364;-57